Terminal Aerodrome Forecast
Issued by NWS Cleveland, OH

Home | Current Version | Previous Version | Graphics & Text | Print | Product List | Glossary On
Versions: 1 2 3 4 5 6 7 8 9 10 11 12 13 14 15 16 17 18 19 20 21 22 23
000
FTUS41 KCLE 142342
TAFCLE
TAF
KCLE 142342Z 1500/1606 VRB04KT P6SM BKN200
     FM151300 16010KT P6SM BKN200
     FM151600 17012G20KT P6SM BKN120 OVC200
     FM152000 19012G22KT P6SM VCSH BKN050 OVC100
      TEMPO 1521/1601 3SM SHRA BKN015 OVC035
     FM160100 23015G25KT P6SM SCT008 OVC015=

USA.gov is the U.S. government's official web portal to all federal, state and local government web resources and services.